Time;durP1;ratioP1;P1;durP2;ratioP2;P2;SDS_P1;SDS_P2;PMS_P1;PMS_P2;Temp;Humidity;BMP_temperature;BMP_pressure;BME280_temperature;BME280_humidity;BME280_pressure;Samples;Min_cycle;Max_cycle;Signal;HPM_P1;HPM_P2
2023/07/21 00:02:15;;;;;;;19.35;3.58;;;;;;;;;;5073539;28;20044;-67
2023/07/21 00:04:42;;;;;;;20.75;3.53;;;;;;;;;;5073942;28;20044;-70
2023/07/21 00:07:09;;;;;;;15.82;3.35;;;;;;;;;;5073365;28;20071;-69
2023/07/21 00:09:35;;;;;;;19.48;2.42;;;;;;;;;;5074049;28;20067;-68
2023/07/21 00:12:02;;;;;;;11.18;1.88;;;;;;;;;;5073134;28;20437;-68
2023/07/21 00:14:28;;;;;;;5.50;1.90;;;;;;;;;;5073682;28;20072;-68
2023/07/21 00:16:56;;;;;;;5.80;2.00;;;;;;;;;;5073148;28;20045;-68
2023/07/21 00:19:23;;;;;;;4.70;1.52;;;;;;;;;;5073464;28;20047;-68
2023/07/21 00:21:51;;;;;;;5.72;1.63;;;;;;;;;;5073521;28;20127;-68
2023/07/21 00:24:18;;;;;;;4.10;1.50;;;;;;;;;;5073550;28;20063;-68
2023/07/21 00:26:46;;;;;;;4.85;1.60;;;;;;;;;;5073534;28;20468;-67
2023/07/21 00:29:12;;;;;;;6.30;1.70;;;;;;;;;;5073060;28;20138;-69
2023/07/21 00:31:39;;;;;;;4.07;1.63;;;;;;;;;;5073337;28;20048;-69
2023/07/21 00:34:08;;;;;;;2.95;1.40;;;;;;;;;;5072723;28;20044;-68
2023/07/21 00:36:35;;;;;;;6.18;1.95;;;;;;;;;;5073072;28;20501;-70
2023/07/21 00:39:03;;;;;;;2.72;1.55;;;;;;;;;;5072732;28;20474;-67
2023/07/21 00:41:29;;;;;;;3.10;1.40;;;;;;;;;;5072858;28;20511;-69
2023/07/21 00:43:56;;;;;;;5.65;1.70;;;;;;;;;;5072671;28;20409;-67
2023/07/21 00:46:23;;;;;;;3.08;1.63;;;;;;;;;;5073035;28;20536;-69
2023/07/21 00:48:50;;;;;;;2.78;1.52;;;;;;;;;;5072548;28;20044;-69
2023/07/21 00:51:20;;;;;;;4.47;1.80;;;;;;;;;;5072969;28;20044;-68
2023/07/21 00:53:47;;;;;;;3.08;1.50;;;;;;;;;;5072252;28;20044;-68
2023/07/21 00:56:14;;;;;;;3.63;1.60;;;;;;;;;;5072436;28;20047;-68
2023/07/21 00:58:40;;;;;;;2.38;1.75;;;;;;;;;;5072518;28;20426;-69
2023/07/21 01:01:07;;;;;;;2.17;1.70;;;;;;;;;;5072559;28;20483;-68
2023/07/21 01:03:35;;;;;;;2.25;1.75;;;;;;;;;;5072531;28;20045;-68
2023/07/21 01:06:04;;;;;;;3.38;1.70;;;;;;;;;;5071988;28;20576;-67
2023/07/21 01:08:32;;;;;;;2.08;1.65;;;;;;;;;;5072549;28;20047;-68
2023/07/21 01:10:59;;;;;;;3.72;1.63;;;;;;;;;;5072226;28;20055;-68
2023/07/21 01:13:27;;;;;;;1.83;1.55;;;;;;;;;;5072042;28;20054;-68
2023/07/21 01:15:56;;;;;;;1.38;1.27;;;;;;;;;;5071971;28;20049;-69
2023/07/21 01:18:25;;;;;;;2.33;1.55;;;;;;;;;;5072431;28;20486;-68
2023/07/21 01:20:54;;;;;;;1.95;1.60;;;;;;;;;;5071663;28;20041;-67
2023/07/21 01:23:28;;;;;;;2.65;1.48;;;;;;;;;;5072563;28;20049;-70
2023/07/21 01:25:58;;;;;;;2.35;1.60;;;;;;;;;;5071967;28;20055;-69
2023/07/21 01:28:26;;;;;;;3.10;1.70;;;;;;;;;;5072569;28;20045;-68
2023/07/21 01:30:56;;;;;;;5.00;1.75;;;;;;;;;;5072152;28;20049;-69
2023/07/21 01:33:23;;;;;;;3.67;1.70;;;;;;;;;;5072039;28;20303;-68
2023/07/21 01:35:51;;;;;;;4.32;1.85;;;;;;;;;;5071639;28;20059;-67
2023/07/21 01:38:20;;;;;;;1.88;1.65;;;;;;;;;;5071698;28;20072;-68
2023/07/21 01:40:47;;;;;;;3.05;2.10;;;;;;;;;;5071510;28;20063;-69
2023/07/21 01:43:16;;;;;;;4.88;2.00;;;;;;;;;;5072069;28;20047;-68
2023/07/21 01:45:42;;;;;;;3.67;1.75;;;;;;;;;;5071939;28;20044;-68
2023/07/21 01:48:10;;;;;;;4.82;1.80;;;;;;;;;;5071401;28;20494;-68
2023/07/21 01:50:39;;;;;;;4.38;2.05;;;;;;;;;;5071834;28;20621;-68
2023/07/21 01:53:09;;;;;;;2.75;1.88;;;;;;;;;;5071138;28;20135;-69
2023/07/21 01:55:41;;;;;;;2.42;1.65;;;;;;;;;;5071428;28;20048;-68
2023/07/21 01:58:09;;;;;;;2.67;1.60;;;;;;;;;;5071191;28;20148;-68
2023/07/21 02:00:42;;;;;;;2.38;2.03;;;;;;;;;;5071244;28;20056;-68
2023/07/21 02:03:09;;;;;;;;;;;;;;;;;;5071349;28;20056;-69
2023/07/21 02:05:35;;;;;;;3.60;1.98;;;;;;;;;;5071131;28;19921;-67
2023/07/21 02:08:02;;;;;;;5.00;2.10;;;;;;;;;;5071018;28;20052;-69
2023/07/21 02:10:28;;;;;;;3.80;1.77;;;;;;;;;;5071321;28;20060;-69
2023/07/21 02:12:55;;;;;;;3.92;1.83;;;;;;;;;;5070789;28;20051;-67
2023/07/21 02:15:22;;;;;;;5.38;2.30;;;;;;;;;;5071394;28;20040;-68
2023/07/21 02:17:50;;;;;;;5.07;2.15;;;;;;;;;;5069825;28;20050;-70
2023/07/21 02:20:16;;;;;;;3.90;2.50;;;;;;;;;;5071026;28;20048;-71
2023/07/21 02:22:43;;;;;;;3.42;1.90;;;;;;;;;;5070845;28;20078;-70
2023/07/21 02:25:10;;;;;;;3.78;2.08;;;;;;;;;;5071154;28;20048;-68
2023/07/21 02:27:37;;;;;;;2.67;2.08;;;;;;;;;;5071024;28;20055;-71
2023/07/21 02:30:06;;;;;;;3.10;1.90;;;;;;;;;;5070789;28;20059;-69
2023/07/21 02:32:32;;;;;;;1.90;1.70;;;;;;;;;;5071099;28;20139;-71
2023/07/21 02:35:00;;;;;;;3.58;2.05;;;;;;;;;;5070793;28;20048;-70
2023/07/21 02:37:27;;;;;;;3.38;1.60;;;;;;;;;;5071202;28;20044;-70
2023/07/21 02:39:53;;;;;;;3.05;1.63;;;;;;;;;;5070578;28;20040;-68
2023/07/21 02:42:20;;;;;;;2.40;1.92;;;;;;;;;;5070768;28;20076;-69
2023/07/21 02:44:46;;;;;;;2.40;2.20;;;;;;;;;;5070104;28;20084;-69
2023/07/21 02:47:15;;;;;;;3.67;2.50;;;;;;;;;;5070274;28;20048;-68
2023/07/21 02:49:42;;;;;;;3.55;2.30;;;;;;;;;;5070186;28;20487;-68
2023/07/21 02:52:10;;;;;;;3.72;1.98;;;;;;;;;;5070391;28;20040;-69
2023/07/21 02:54:37;;;;;;;3.60;2.13;;;;;;;;;;5070174;28;20052;-68
2023/07/21 02:57:04;;;;;;;3.42;1.88;;;;;;;;;;5070605;28;20544;-69
2023/07/21 02:59:30;;;;;;;3.35;2.03;;;;;;;;;;5070373;28;20048;-68
2023/07/21 03:01:57;;;;;;;3.40;1.83;;;;;;;;;;5070096;28;20053;-68
2023/07/21 03:04:25;;;;;;;3.88;2.17;;;;;;;;;;5070827;28;20062;-68
2023/07/21 03:06:52;;;;;;;4.38;2.55;;;;;;;;;;5069907;28;20121;-69
2023/07/21 03:09:20;;;;;;;5.40;2.13;;;;;;;;;;5070093;28;20055;-69
2023/07/21 03:11:46;;;;;;;3.17;2.08;;;;;;;;;;5069948;28;20418;-69
2023/07/21 03:14:13;;;;;;;4.38;2.53;;;;;;;;;;5070408;28;20490;-69
2023/07/21 03:16:40;;;;;;;4.82;2.40;;;;;;;;;;5069907;28;20390;-70
2023/07/21 03:19:07;;;;;;;3.60;2.40;;;;;;;;;;5070342;28;20483;-68
2023/07/21 03:21:34;;;;;;;3.72;2.50;;;;;;;;;;5069502;28;20056;-71
2023/07/21 03:24:00;;;;;;;8.57;2.95;;;;;;;;;;5070144;28;20140;-69
2023/07/21 03:26:28;;;;;;;3.42;2.22;;;;;;;;;;5070058;28;20052;-68
2023/07/21 03:28:55;;;;;;;3.20;2.22;;;;;;;;;;5073548;28;20062;-69
2023/07/21 03:31:22;;;;;;;4.20;2.58;;;;;;;;;;5073613;28;20049;-68
2023/07/21 03:33:48;;;;;;;4.07;2.53;;;;;;;;;;5074399;28;20493;-69
2023/07/21 03:36:16;;;;;;;3.83;2.08;;;;;;;;;;5074400;28;20045;-71
2023/07/21 03:38:43;;;;;;;3.47;2.50;;;;;;;;;;5073839;28;20432;-69
2023/07/21 03:41:10;;;;;;;3.83;1.95;;;;;;;;;;5074064;28;20055;-68
2023/07/21 03:43:38;;;;;;;3.45;2.50;;;;;;;;;;5074089;28;20470;-69
2023/07/21 03:46:06;;;;;;;3.35;2.25;;;;;;;;;;5074289;28;20051;-69
2023/07/21 03:48:34;;;;;;;3.47;2.20;;;;;;;;;;5073720;28;20049;-69
2023/07/21 03:51:02;;;;;;;2.60;2.15;;;;;;;;;;5074156;28;20127;-69
2023/07/21 03:53:29;;;;;;;4.20;2.22;;;;;;;;;;5086230;22;20048;-65
2023/07/21 03:55:56;;;;;;;3.72;2.13;;;;;;;;;;5073220;28;20045;-65
2023/07/21 03:58:23;;;;;;;7.65;2.20;;;;;;;;;;5073238;28;20048;-65
2023/07/21 04:00:51;;;;;;;2.90;2.20;;;;;;;;;;5072839;28;20055;-65
2023/07/21 04:03:18;;;;;;;4.50;2.60;;;;;;;;;;5072956;28;20048;-65
2023/07/21 04:05:45;;;;;;;2.28;2.03;;;;;;;;;;5073263;28;20057;-65
2023/07/21 04:08:11;;;;;;;7.13;2.40;;;;;;;;;;5073023;28;20044;-65
2023/07/21 04:10:40;;;;;;;3.25;2.42;;;;;;;;;;5072689;28;20055;-65
2023/07/21 04:13:07;;;;;;;4.45;2.50;;;;;;;;;;5073102;28;20044;-65
2023/07/21 04:15:34;;;;;;;7.80;2.40;;;;;;;;;;5073514;28;20055;-65
2023/07/21 04:18:02;;;;;;;4.25;2.70;;;;;;;;;;5073281;28;20041;-65
2023/07/21 04:20:29;;;;;;;4.45;2.30;;;;;;;;;;5072287;28;20064;-65
2023/07/21 04:22:56;;;;;;;6.15;2.70;;;;;;;;;;5072844;28;20079;-66
2023/07/21 04:25:22;;;;;;;5.45;3.00;;;;;;;;;;5072483;28;20045;-66
2023/07/21 04:27:50;;;;;;;2.95;2.13;;;;;;;;;;5072969;28;20048;-65
2023/07/21 04:30:17;;;;;;;4.50;2.47;;;;;;;;;;5072079;28;20059;-66
2023/07/21 04:32:43;;;;;;;4.80;2.30;;;;;;;;;;5072904;28;20512;-66
2023/07/21 04:35:11;;;;;;;4.60;2.60;;;;;;;;;;5072572;28;20040;-66
2023/07/21 04:37:39;;;;;;;5.50;2.20;;;;;;;;;;5072710;28;20398;-66
2023/07/21 04:40:07;;;;;;;3.38;2.50;;;;;;;;;;5071537;28;20041;-65
2023/07/21 04:42:33;;;;;;;3.65;2.33;;;;;;;;;;5073089;28;20049;-66
2023/07/21 04:45:00;;;;;;;3.92;2.50;;;;;;;;;;5072447;28;20513;-66
2023/07/21 04:47:27;;;;;;;3.83;2.10;;;;;;;;;;5072833;28;20080;-66
2023/07/21 04:49:53;;;;;;;3.92;2.58;;;;;;;;;;5072320;28;20044;-66
2023/07/21 04:52:22;;;;;;;2.88;2.13;;;;;;;;;;5073017;28;20055;-65
2023/07/21 04:54:48;;;;;;;4.22;2.35;;;;;;;;;;5075064;28;20045;-65
2023/07/21 04:57:15;;;;;;;4.80;2.25;;;;;;;;;;5071858;28;20068;-65
2023/07/21 04:59:42;;;;;;;3.17;2.25;;;;;;;;;;5072019;28;20052;-66
2023/07/21 05:02:09;;;;;;;5.40;2.08;;;;;;;;;;5072736;28;20539;-66
2023/07/21 05:04:35;;;;;;;2.30;2.10;;;;;;;;;;5072490;28;20044;-66
2023/07/21 05:07:03;;;;;;;8.85;2.35;;;;;;;;;;5072187;28;20410;-66
2023/07/21 05:09:31;;;;;;;4.68;2.05;;;;;;;;;;5072247;28;20182;-65
2023/07/21 05:11:58;;;;;;;5.97;2.20;;;;;;;;;;5071814;28;20134;-65
2023/07/21 05:14:24;;;;;;;3.83;2.33;;;;;;;;;;5072076;28;20467;-65
2023/07/21 05:16:51;;;;;;;2.72;2.05;;;;;;;;;;5071612;28;20044;-65
2023/07/21 05:19:17;;;;;;;4.68;2.10;;;;;;;;;;5071615;28;20048;-65
2023/07/21 05:21:44;;;;;;;5.53;2.35;;;;;;;;;;5071777;28;20127;-66
2023/07/21 05:24:11;;;;;;;3.70;2.20;;;;;;;;;;5072346;28;20053;-66
2023/07/21 05:26:39;;;;;;;3.58;2.13;;;;;;;;;;5072114;28;20048;-67
2023/07/21 05:29:05;;;;;;;3.55;2.00;;;;;;;;;;5072162;28;20536;-67
2023/07/21 05:31:32;;;;;;;3.10;1.92;;;;;;;;;;5071963;28;20433;-67
2023/07/21 05:33:59;;;;;;;2.72;2.22;;;;;;;;;;5071547;28;20048;-65
2023/07/21 05:36:26;;;;;;;2.08;1.90;;;;;;;;;;5071739;28;20060;-67
2023/07/21 05:38:52;;;;;;;1.90;1.70;;;;;;;;;;5071350;28;20049;-66
2023/07/21 05:41:19;;;;;;;3.08;2.20;;;;;;;;;;5071682;28;20041;-65
2023/07/21 05:43:47;;;;;;;3.05;2.30;;;;;;;;;;5071224;28;20486;-66
2023/07/21 05:46:14;;;;;;;2.80;2.10;;;;;;;;;;5071666;28;20278;-66
2023/07/21 05:48:41;;;;;;;4.50;2.20;;;;;;;;;;5071558;28;20058;-66
2023/07/21 05:51:12;;;;;;;2.92;2.33;;;;;;;;;;5070619;28;20521;-66
2023/07/21 05:53:39;;;;;;;3.85;2.03;;;;;;;;;;5071199;28;20044;-67
2023/07/21 05:56:06;;;;;;;6.65;2.33;;;;;;;;;;5071670;28;20048;-66
2023/07/21 05:58:34;;;;;;;4.30;2.47;;;;;;;;;;5071215;28;20055;-66
2023/07/21 06:01:02;;;;;;;3.50;2.00;;;;;;;;;;5071119;28;20048;-66
2023/07/21 06:03:30;;;;;;;3.83;2.20;;;;;;;;;;5071321;28;20551;-66
2023/07/21 06:05:57;;;;;;;2.58;1.90;;;;;;;;;;5071384;28;20066;-66
2023/07/21 06:08:25;;;;;;;3.40;2.10;;;;;;;;;;5071046;28;20520;-66
2023/07/21 06:10:52;;;;;;;3.10;1.77;;;;;;;;;;5070262;28;20052;-66
2023/07/21 06:13:18;;;;;;;2.78;1.67;;;;;;;;;;5070637;28;20051;-66
2023/07/21 06:15:45;;;;;;;2.70;2.00;;;;;;;;;;5070752;28;20358;-66
2023/07/21 06:18:13;;;;;;;2.20;1.83;;;;;;;;;;5070971;28;20131;-66
2023/07/21 06:20:39;;;;;;;2.85;2.00;;;;;;;;;;5070387;28;20041;-66
2023/07/21 06:23:06;;;;;;;4.65;2.58;;;;;;;;;;5070675;28;20509;-66
2023/07/21 06:25:32;;;;;;;5.80;2.35;;;;;;;;;;5070223;28;20493;-65
2023/07/21 06:27:59;;;;;;;4.85;2.78;;;;;;;;;;5070351;28;20494;-66
2023/07/21 06:30:25;;;;;;;5.18;2.60;;;;;;;;;;5069663;28;20409;-66
2023/07/21 06:32:52;;;;;;;4.35;2.20;;;;;;;;;;5070681;28;20049;-66
2023/07/21 06:35:20;;;;;;;4.45;2.25;;;;;;;;;;5070342;28;20655;-66
2023/07/21 06:37:47;;;;;;;2.92;2.42;;;;;;;;;;5070825;28;20044;-66
2023/07/21 06:40:14;;;;;;;5.32;2.55;;;;;;;;;;5069095;28;20056;-65
2023/07/21 06:42:43;;;;;;;3.33;2.08;;;;;;;;;;5062233;28;20414;-65
2023/07/21 06:45:10;;;;;;;3.33;2.08;;;;;;;;;;5069210;28;20132;-65
2023/07/21 06:47:37;;;;;;;7.35;2.75;;;;;;;;;;5067923;28;20055;-65
2023/07/21 06:50:04;;;;;;;6.45;2.60;;;;;;;;;;5069721;28;20049;-65
2023/07/21 06:52:32;;;;;;;5.63;2.63;;;;;;;;;;5069315;28;20102;-65
2023/07/21 06:54:59;;;;;;;7.07;2.90;;;;;;;;;;5070494;28;20055;-65
2023/07/21 06:57:25;;;;;;;3.63;2.92;;;;;;;;;;5069973;28;20063;-64
2023/07/21 06:59:52;;;;;;;7.57;3.28;;;;;;;;;;5068610;28;20044;-65
2023/07/21 07:02:19;;;;;;;5.75;3.13;;;;;;;;;;5070028;28;20493;-64
2023/07/21 07:04:47;;;;;;;7.13;2.90;;;;;;;;;;5070366;28;20050;-65
2023/07/21 07:07:14;;;;;;;4.10;2.80;;;;;;;;;;5068750;28;20751;-65
2023/07/21 07:09:42;;;;;;;4.45;3.08;;;;;;;;;;5068286;28;20436;-65
2023/07/21 07:12:09;;;;;;;8.38;2.92;;;;;;;;;;5070008;28;20100;-65
2023/07/21 07:14:37;;;;;;;7.63;3.13;;;;;;;;;;5069584;28;20114;-66
2023/07/21 07:17:04;;;;;;;9.82;2.78;;;;;;;;;;5070062;28;20049;-65
2023/07/21 07:19:30;;;;;;;7.57;3.00;;;;;;;;;;5069114;28;20111;-65
2023/07/21 07:21:57;;;;;;;7.35;2.95;;;;;;;;;;5070199;28;20044;-65
2023/07/21 07:24:24;;;;;;;3.85;2.42;;;;;;;;;;5069837;28;20238;-65
2023/07/21 07:26:52;;;;;;;3.58;2.42;;;;;;;;;;5069428;28;20044;-65
2023/07/21 07:29:20;;;;;;;6.95;2.60;;;;;;;;;;5069629;28;20098;-65
2023/07/21 07:31:47;;;;;;;4.60;2.70;;;;;;;;;;5069296;28;20396;-65
2023/07/21 07:34:14;;;;;;;6.65;2.80;;;;;;;;;;5069292;28;20475;-65
2023/07/21 07:36:40;;;;;;;6.03;2.67;;;;;;;;;;5069356;28;20488;-65
2023/07/21 07:39:08;;;;;;;6.93;2.60;;;;;;;;;;5057398;28;20111;-65
2023/07/21 07:41:35;;;;;;;4.47;2.25;;;;;;;;;;5048972;28;20045;-65
2023/07/21 07:44:03;;;;;;;3.65;2.40;;;;;;;;;;5049404;28;20049;-65
2023/07/21 07:46:30;;;;;;;13.20;2.67;;;;;;;;;;5049514;28;20049;-65
2023/07/21 07:48:56;;;;;;;4.47;2.15;;;;;;;;;;5048811;28;20045;-65
2023/07/21 07:51:23;;;;;;;4.30;2.20;;;;;;;;;;5048794;28;20049;-65
2023/07/21 07:53:52;;;;;;;5.72;2.05;;;;;;;;;;5048517;28;20041;-65
2023/07/21 07:56:21;;;;;;;3.03;1.65;;;;;;;;;;5049641;28;20402;-65
2023/07/21 07:58:47;;;;;;;6.75;2.20;;;;;;;;;;5048980;28;20053;-65
2023/07/21 08:01:15;;;;;;;5.97;2.00;;;;;;;;;;5049129;28;20041;-65
2023/07/21 08:03:43;;;;;;;3.45;2.30;;;;;;;;;;5049042;28;20051;-65
2023/07/21 08:06:11;;;;;;;7.40;2.05;;;;;;;;;;5049407;28;20102;-65
2023/07/21 08:08:37;;;;;;;3.90;1.92;;;;;;;;;;5052402;28;20048;-65
2023/07/21 08:11:04;;;;;;;3.97;1.65;;;;;;;;;;5067843;28;20049;-65
2023/07/21 08:13:31;;;;;;;2.20;1.63;;;;;;;;;;5069609;28;20500;-65
2023/07/21 08:15:57;;;;;;;2.47;1.90;;;;;;;;;;5072125;28;20179;-66
2023/07/21 08:18:25;;;;;;;2.33;1.90;;;;;;;;;;5072711;28;20063;-65
2023/07/21 08:20:52;;;;;;;4.20;2.45;;;;;;;;;;5066727;28;20041;-65
2023/07/21 08:23:19;;;;;;;2.38;1.83;;;;;;;;;;5053092;28;20051;-65
2023/07/21 08:25:45;;;;;;;3.03;1.90;;;;;;;;;;5053009;28;20052;-65
2023/07/21 08:28:12;;;;;;;5.32;2.00;;;;;;;;;;5052846;28;20482;-65
2023/07/21 08:30:39;;;;;;;4.20;1.73;;;;;;;;;;5052462;28;20049;-65
2023/07/21 08:33:05;;;;;;;2.55;1.75;;;;;;;;;;5059140;28;20044;-66
2023/07/21 08:35:33;;;;;;;7.22;1.92;;;;;;;;;;5072753;28;20048;-65
2023/07/21 08:38:00;;;;;;;2.70;1.60;;;;;;;;;;5072381;28;20048;-65
2023/07/21 08:40:27;;;;;;;5.55;1.70;;;;;;;;;;5071783;28;20049;-64
2023/07/21 08:42:55;;;;;;;4.53;1.80;;;;;;;;;;5073155;28;20425;-64
2023/07/21 08:45:22;;;;;;;6.32;2.08;;;;;;;;;;5070561;28;20528;-64
2023/07/21 08:47:49;;;;;;;2.40;1.52;;;;;;;;;;5071698;28;20048;-65
2023/07/21 08:50:18;;;;;;;3.38;1.67;;;;;;;;;;5071882;28;20125;-65
2023/07/21 08:52:47;;;;;;;4.55;1.70;;;;;;;;;;5072451;28;20414;-65
2023/07/21 08:55:13;;;;;;;1.77;1.42;;;;;;;;;;5072041;28;20090;-65
2023/07/21 08:57:40;;;;;;;3.92;1.60;;;;;;;;;;5072223;28;20233;-65
2023/07/21 09:00:10;;;;;;;2.95;1.92;;;;;;;;;;5071658;28;20045;-65
2023/07/21 09:02:41;;;;;;;4.57;1.70;;;;;;;;;;5072020;28;20056;-65
2023/07/21 09:05:08;;;;;;;3.03;1.50;;;;;;;;;;5072527;28;20044;-65
2023/07/21 09:07:40;;;;;;;2.78;1.92;;;;;;;;;;5071986;28;20076;-65
2023/07/21 09:10:10;;;;;;;2.13;1.50;;;;;;;;;;5072355;28;20052;-65
2023/07/21 09:12:37;;;;;;;1.77;1.40;;;;;;;;;;5072191;28;20506;-65
2023/07/21 09:15:11;;;;;;;3.60;1.48;;;;;;;;;;5069584;28;20143;-65
2023/07/21 09:17:42;;;;;;;3.63;1.80;;;;;;;;;;5072094;28;20052;-65
2023/07/21 09:20:10;;;;;;;2.95;1.80;;;;;;;;;;5072096;28;20080;-65
2023/07/21 09:22:37;;;;;;;5.88;1.60;;;;;;;;;;5072438;28;20053;-64
2023/07/21 09:25:04;;;;;;;3.10;1.60;;;;;;;;;;5071413;28;20045;-65
2023/07/21 09:27:34;;;;;;;5.95;1.60;;;;;;;;;;5071481;28;20136;-65
2023/07/21 09:30:03;;;;;;;3.15;1.88;;;;;;;;;;5071461;28;20481;-65
2023/07/21 09:32:39;;;;;;;3.08;1.52;;;;;;;;;;5072451;28;20048;-65
2023/07/21 09:35:07;;;;;;;2.95;1.60;;;;;;;;;;5071329;28;20067;-65
2023/07/21 09:37:35;;;;;;;4.00;1.80;;;;;;;;;;5071477;28;20409;-65
2023/07/21 09:40:05;;;;;;;1.67;1.58;;;;;;;;;;5071397;28;20409;-65
2023/07/21 09:42:33;;;;;;;3.92;1.80;;;;;;;;;;5071818;28;20044;-65
2023/07/21 09:45:00;;;;;;;4.80;1.50;;;;;;;;;;5065690;28;20098;-65
2023/07/21 09:47:26;;;;;;;2.55;1.65;;;;;;;;;;5051529;28;20491;-65
2023/07/21 09:49:56;;;;;;;3.38;1.80;;;;;;;;;;5051122;28;20106;-66
2023/07/21 09:52:23;;;;;;;4.82;2.05;;;;;;;;;;5064256;22;20099;-69
2023/07/21 09:55:00;;;;;;;2.45;1.85;;;;;;;;;;5051346;28;20045;-69
2023/07/21 09:57:28;;;;;;;2.75;1.70;;;;;;;;;;5050814;28;20071;-69
2023/07/21 10:00:00;;;;;;;2.22;1.58;;;;;;;;;;5050693;28;20505;-70
2023/07/21 10:02:28;;;;;;;3.97;1.90;;;;;;;;;;5050362;28;20045;-70
2023/07/21 10:04:56;;;;;;;3.35;2.00;;;;;;;;;;5050621;28;20095;-70
2023/07/21 10:07:22;;;;;;;9.00;2.90;;;;;;;;;;5050652;28;20041;-69
2023/07/21 10:09:50;;;;;;;5.07;2.30;;;;;;;;;;5049666;28;20045;-70
2023/07/21 10:12:19;;;;;;;5.57;2.50;;;;;;;;;;5051046;28;20380;-70
2023/07/21 10:14:46;;;;;;;5.20;2.63;;;;;;;;;;5048169;28;20067;-70
2023/07/21 10:17:24;;;;;;;7.25;3.60;;;;;;;;;;5043778;28;20128;-71
2023/07/21 10:20:07;;;;;;;4.05;2.08;;;;;;;;;;5047700;28;20041;-70
2023/07/21 10:22:33;;;;;;;4.03;1.70;;;;;;;;;;5045764;28;20048;-70
2023/07/21 10:25:00;;;;;;;4.93;2.17;;;;;;;;;;5050270;28;20045;-69
2023/07/21 10:27:28;;;;;;;4.07;1.70;;;;;;;;;;5050066;28;20483;-70
2023/07/21 10:30:15;;;;;;;4.28;2.20;;;;;;;;;;5050269;28;20053;-70
2023/07/21 10:32:43;;;;;;;3.75;2.10;;;;;;;;;;5048898;28;20053;-70
2023/07/21 10:35:31;;;;;;;6.78;3.00;;;;;;;;;;5048968;28;20052;-70
2023/07/21 10:38:18;;;;;;;9.05;3.42;;;;;;;;;;5027564;28;20136;-69
2023/07/21 10:40:47;;;;;;;5.88;3.60;;;;;;;;;;5030042;28;20454;-69
2023/07/21 10:43:13;;;;;;;9.38;4.28;;;;;;;;;;5030340;28;20049;-70
2023/07/21 10:45:40;;;;;;;10.90;4.70;;;;;;;;;;5031767;28;20053;-70
2023/07/21 10:48:11;;;;;;;9.48;5.30;;;;;;;;;;5040211;28;20049;-70
2023/07/21 10:50:40;;;;;;;7.80;4.77;;;;;;;;;;5029520;28;20054;-70
2023/07/21 10:53:07;;;;;;;11.20;4.88;;;;;;;;;;5029641;28;20037;-69
2023/07/21 10:55:37;;;;;;;7.35;4.28;;;;;;;;;;5030187;28;20058;-69
2023/07/21 10:58:04;;;;;;;9.00;4.32;;;;;;;;;;5032611;28;20076;-69
2023/07/21 11:00:31;;;;;;;6.95;4.28;;;;;;;;;;5029438;28;20568;-70
2023/07/21 11:02:57;;;;;;;6.35;3.65;;;;;;;;;;5030043;28;20422;-69
2023/07/21 11:05:26;;;;;;;5.68;4.03;;;;;;;;;;5030147;28;20057;-70
2023/07/21 11:07:52;;;;;;;6.05;4.07;;;;;;;;;;5031389;28;20058;-70
2023/07/21 11:10:19;;;;;;;4.28;3.35;;;;;;;;;;5030923;28;20132;-70
2023/07/21 11:12:50;;;;;;;3.72;3.10;;;;;;;;;;5031344;28;20085;-70
2023/07/21 11:15:17;;;;;;;5.43;3.90;;;;;;;;;;5030776;28;20045;-70
2023/07/21 11:17:45;;;;;;;5.70;3.50;;;;;;;;;;5029981;28;20477;-69
2023/07/21 11:20:14;;;;;;;6.68;4.25;;;;;;;;;;5029704;28;20410;-69
2023/07/21 11:22:42;;;;;;;5.85;3.92;;;;;;;;;;5030544;28;20184;-69
2023/07/21 11:25:10;;;;;;;5.32;3.97;;;;;;;;;;5029689;28;20049;-70
2023/07/21 11:27:41;;;;;;;9.40;4.30;;;;;;;;;;5029912;28;20132;-71
2023/07/21 11:30:10;;;;;;;6.32;4.05;;;;;;;;;;5029024;28;20053;-70
2023/07/21 11:32:37;;;;;;;6.30;4.25;;;;;;;;;;5030077;28;20053;-70
2023/07/21 11:35:04;;;;;;;4.25;3.45;;;;;;;;;;5030575;28;20244;-72
2023/07/21 11:37:36;;;;;;;4.28;3.33;;;;;;;;;;5029013;28;20136;-70
2023/07/21 11:40:08;;;;;;;3.25;2.95;;;;;;;;;;5029741;28;20045;-70
2023/07/21 11:42:42;;;;;;;4.20;2.63;;;;;;;;;;5029558;28;20054;-70
2023/07/21 11:45:37;;;;;;;3.28;2.50;;;;;;;;;;5030446;28;20289;-70
2023/07/21 11:48:12;;;;;;;2.70;2.25;;;;;;;;;;5029862;28;20099;-70
2023/07/21 11:50:41;;;;;;;2.95;2.58;;;;;;;;;;5033823;28;20414;-70
2023/07/21 11:53:07;;;;;;;2.85;2.13;;;;;;;;;;5033293;28;20048;-70
2023/07/21 11:55:36;;;;;;;2.65;2.15;;;;;;;;;;5034365;28;20056;-70
2023/07/21 11:58:03;;;;;;;2.35;2.15;;;;;;;;;;5033787;28;20050;-70
2023/07/21 12:00:29;;;;;;;3.05;2.30;;;;;;;;;;5033646;28;20084;-69
2023/07/21 12:02:57;;;;;;;3.28;2.50;;;;;;;;;;5033699;28;20436;-70
2023/07/21 12:05:24;;;;;;;2.88;2.30;;;;;;;;;;5033840;28;20443;-70
2023/07/21 12:07:52;;;;;;;5.93;2.10;;;;;;;;;;5033302;28;20125;-69
2023/07/21 12:10:19;;;;;;;2.15;1.95;;;;;;;;;;5033220;28;20081;-70
2023/07/21 12:12:47;;;;;;;3.33;1.70;;;;;;;;;;5032790;28;20317;-70
2023/07/21 12:15:13;;;;;;;2.30;2.03;;;;;;;;;;5033429;28;20045;-70
2023/07/21 12:17:40;;;;;;;3.40;1.70;;;;;;;;;;5033508;28;20046;-69
2023/07/21 12:20:11;;;;;;;2.55;1.63;;;;;;;;;;5035968;28;20041;-70
2023/07/21 12:22:39;;;;;;;2.65;1.80;;;;;;;;;;5053991;28;20048;-69
2023/07/21 12:25:06;;;;;;;3.75;1.90;;;;;;;;;;5053368;28;20128;-70
2023/07/21 12:27:33;;;;;;;2.10;1.90;;;;;;;;;;5053673;28;20049;-69
2023/07/21 12:30:01;;;;;;;2.15;1.92;;;;;;;;;;5052792;28;20060;-69
2023/07/21 12:32:28;;;;;;;3.13;1.60;;;;;;;;;;5053336;28;20124;-69
2023/07/21 12:34:55;;;;;;;3.05;2.10;;;;;;;;;;5053052;28;20048;-70
2023/07/21 12:37:21;;;;;;;2.05;1.73;;;;;;;;;;5053123;28;20045;-70
2023/07/21 12:39:49;;;;;;;2.20;2.00;;;;;;;;;;5052578;28;20132;-69
2023/07/21 12:42:16;;;;;;;2.70;1.83;;;;;;;;;;5052567;28;20049;-69
2023/07/21 12:44:43;;;;;;;2.10;1.80;;;;;;;;;;5053036;28;20128;-68
2023/07/21 12:47:11;;;;;;;2.03;1.70;;;;;;;;;;5052140;28;20052;-69
2023/07/21 12:49:38;;;;;;;2.30;1.80;;;;;;;;;;5052602;28;20051;-70
2023/07/21 12:52:05;;;;;;;3.05;1.67;;;;;;;;;;5041455;28;20045;-68
2023/07/21 12:54:32;;;;;;;3.35;1.52;;;;;;;;;;5032526;28;20566;-69
2023/07/21 12:56:59;;;;;;;1.60;1.50;;;;;;;;;;5032408;28;20402;-70
2023/07/21 12:59:26;;;;;;;2.35;1.80;;;;;;;;;;5032469;28;20049;-70
2023/07/21 13:01:52;;;;;;;3.60;1.80;;;;;;;;;;5031100;28;20051;-70
2023/07/21 13:04:20;;;;;;;1.83;1.65;;;;;;;;;;5032368;28;20060;-70
2023/07/21 13:06:47;;;;;;;3.47;1.50;;;;;;;;;;5032223;28;20050;-69
2023/07/21 13:09:14;;;;;;;5.13;1.50;;;;;;;;;;5032396;28;20077;-69
2023/07/21 13:11:41;;;;;;;3.30;1.20;;;;;;;;;;5032216;28;20049;-70
2023/07/21 13:14:07;;;;;;;2.15;1.40;;;;;;;;;;5031911;28;20046;-70
2023/07/21 13:16:34;;;;;;;1.50;1.40;;;;;;;;;;5031712;28;20418;-71
2023/07/21 13:19:01;;;;;;;1.85;1.20;;;;;;;;;;5031562;28;20077;-71
2023/07/21 13:21:28;;;;;;;1.40;1.13;;;;;;;;;;5029997;28;20141;-70
2023/07/21 13:23:55;;;;;;;1.63;1.30;;;;;;;;;;5051035;28;20086;-70
2023/07/21 13:26:22;;;;;;;1.20;1.10;;;;;;;;;;5051815;28;20049;-70
2023/07/21 13:28:48;;;;;;;1.40;1.20;;;;;;;;;;5051087;28;20049;-69
2023/07/21 13:31:15;;;;;;;1.38;1.27;;;;;;;;;;5051464;28;20168;-70
2023/07/21 13:33:41;;;;;;;2.03;1.30;;;;;;;;;;5051838;28;20045;-70
2023/07/21 13:36:09;;;;;;;1.65;1.20;;;;;;;;;;5051464;28;20550;-70
2023/07/21 13:38:37;;;;;;;2.72;1.20;;;;;;;;;;5051271;28;20136;-70
2023/07/21 13:41:04;;;;;;;1.13;1.02;;;;;;;;;;5050542;28;20049;-70
2023/07/21 13:43:31;;;;;;;2.03;1.30;;;;;;;;;;5051142;28;20048;-71
2023/07/21 13:45:57;;;;;;;1.58;1.10;;;;;;;;;;5050932;28;20041;-70
2023/07/21 13:48:24;;;;;;;3.13;1.20;;;;;;;;;;5051352;28;20061;-70
2023/07/21 13:50:50;;;;;;;1.92;1.13;;;;;;;;;;5050842;28;20072;-70
2023/07/21 13:53:17;;;;;;;1.23;1.13;;;;;;;;;;5049521;28;20072;-70
2023/07/21 13:55:45;;;;;;;2.50;1.10;;;;;;;;;;5050785;28;20128;-69
2023/07/21 13:58:12;;;;;;;2.50;1.30;;;;;;;;;;5050674;28;20044;-70
2023/07/21 14:00:39;;;;;;;1.60;1.20;;;;;;;;;;5050573;28;20049;-70
2023/07/21 14:03:05;;;;;;;2.20;1.45;;;;;;;;;;5050429;28;20144;-70
2023/07/21 14:05:32;;;;;;;2.22;1.02;;;;;;;;;;5050795;28;20055;-70
2023/07/21 14:07:59;;;;;;;1.55;1.20;;;;;;;;;;5050490;28;20466;-70
2023/07/21 14:10:25;;;;;;;1.63;1.17;;;;;;;;;;5050654;28;20045;-70
2023/07/21 14:12:53;;;;;;;1.30;1.20;;;;;;;;;;5049495;28;20512;-70
2023/07/21 14:15:20;;;;;;;1.30;1.10;;;;;;;;;;5050769;28;20091;-70
2023/07/21 14:17:46;;;;;;;1.20;1.10;;;;;;;;;;5050191;28;20053;-70
2023/07/21 14:20:14;;;;;;;2.38;1.20;;;;;;;;;;5050335;28;20049;-71
2023/07/21 14:22:40;;;;;;;1.65;1.10;;;;;;;;;;5045869;28;20042;-70
2023/07/21 14:25:08;;;;;;;1.55;1.10;;;;;;;;;;5029734;28;20049;-71
2023/07/21 14:27:35;;;;;;;2.85;1.30;;;;;;;;;;5030819;28;20171;-70
2023/07/21 14:30:04;;;;;;;1.25;1.10;;;;;;;;;;5029854;28;20047;-70
2023/07/21 14:32:31;;;;;;;1.10;0.93;;;;;;;;;;5030580;28;20107;-71
2023/07/21 14:34:57;;;;;;;1.60;1.08;;;;;;;;;;5030541;28;20049;-71
2023/07/21 14:37:25;;;;;;;2.08;0.90;;;;;;;;;;5030609;28;20045;-70
2023/07/21 14:39:52;;;;;;;1.65;0.90;;;;;;;;;;5029500;28;20438;-72
2023/07/21 14:42:18;;;;;;;1.00;0.90;;;;;;;;;;5030736;28;20081;-70
2023/07/21 14:44:45;;;;;;;1.17;1.08;;;;;;;;;;5030072;28;20045;-71
2023/07/21 14:47:13;;;;;;;2.15;1.10;;;;;;;;;;5030666;28;20049;-71